createdAt,value
2023-10-16T00:01:33.674Z,0.20
2023-10-16T00:04:02.533Z,0.30
2023-10-16T00:06:30.958Z,0.28
2023-10-16T00:09:15.867Z,0.30
2023-10-16T00:11:44.439Z,0.30
2023-10-16T00:14:25.652Z,0.22
2023-10-16T00:16:54.215Z,0.32
2023-10-16T00:19:25.675Z,0.15
2023-10-16T00:21:53.933Z,0.30
2023-10-16T00:24:22.565Z,0.30
2023-10-16T00:26:50.920Z,0.40
2023-10-16T00:29:37.117Z,0.22
2023-10-16T00:32:08.657Z,0.30
2023-10-16T00:34:37.192Z,0.22
2023-10-16T00:37:06.256Z,0.35
2023-10-16T00:39:36.872Z,0.30
2023-10-16T00:42:10.120Z,0.25
2023-10-16T00:44:41.655Z,0.20
2023-10-16T00:47:13.189Z,0.43
2023-10-16T00:49:41.693Z,0.38
2023-10-16T00:52:12.111Z,0.38
2023-10-16T00:54:41.586Z,0.60
2023-10-16T00:57:13.823Z,0.20
2023-10-16T00:59:43.614Z,0.40
2023-10-16T01:02:17.579Z,0.30
2023-10-16T01:04:48.971Z,0.10
2023-10-16T01:07:17.593Z,0.10
2023-10-16T01:09:49.395Z,0.28
2023-10-16T01:12:21.878Z,0.25
2023-10-16T01:14:50.779Z,0.30
2023-10-16T01:17:31.307Z,0.47
2023-10-16T01:20:01.141Z,0.60
2023-10-16T01:22:31.433Z,0.30
2023-10-16T01:25:02.726Z,0.20
2023-10-16T01:27:31.794Z,0.32
2023-10-16T01:30:03.953Z,0.57
2023-10-16T01:32:32.981Z,0.20
2023-10-16T01:35:02.027Z,0.20
2023-10-16T01:37:31.833Z,0.70
2023-10-16T01:40:23.351Z,0.20
2023-10-16T01:42:56.169Z,0.50
2023-10-16T01:45:28.612Z,0.25
2023-10-16T01:47:57.315Z,0.43
2023-10-16T01:50:28.934Z,0.30
2023-10-16T01:52:57.039Z,0.30
2023-10-16T01:55:26.588Z,0.50
2023-10-16T01:58:01.012Z,0.45
2023-10-16T02:00:36.142Z,0.77
2023-10-16T02:03:10.108Z,0.40
2023-10-16T02:05:42.951Z,0.50
2023-10-16T02:08:14.115Z,0.30
2023-10-16T02:10:45.976Z,0.65
2023-10-16T02:13:14.344Z,0.70
2023-10-16T02:15:44.827Z,0.20
2023-10-16T02:18:25.362Z,0.30
2023-10-16T02:20:54.348Z,0.35
2023-10-16T02:23:22.382Z,0.25
2023-10-16T02:25:51.036Z,0.40
2023-10-16T02:28:21.198Z,0.40
2023-10-16T02:30:51.115Z,0.90
2023-10-16T02:33:19.464Z,0.40
2023-10-16T02:35:49.878Z,0.38
2023-10-16T02:38:30.629Z,0.10
2023-10-16T02:41:06.462Z,0.40
2023-10-16T02:43:43.149Z,0.50
2023-10-16T02:46:11.777Z,0.47
2023-10-16T02:48:43.738Z,0.32
2023-10-16T02:51:12.914Z,0.25
2023-10-16T02:53:43.713Z,0.50
2023-10-16T02:56:18.796Z,0.45
2023-10-16T02:58:56.512Z,0.35
2023-10-16T03:01:25.121Z,0.40
2023-10-16T03:03:54.013Z,0.30
2023-10-16T03:06:23.115Z,0.30
2023-10-16T03:08:51.936Z,0.30
2023-10-16T03:11:22.402Z,0.45
2023-10-16T03:13:53.490Z,0.30
2023-10-16T03:16:25.648Z,0.40
2023-10-16T03:19:17.852Z,0.40
2023-10-16T03:21:47.101Z,0.40
2023-10-16T03:24:17.361Z,0.47
2023-10-16T03:26:45.800Z,0.50
2023-10-16T03:29:13.814Z,0.60
2023-10-16T03:31:42.282Z,0.38
2023-10-16T03:34:13.300Z,0.60
2023-10-16T03:36:43.019Z,0.70
2023-10-16T03:39:13.709Z,1.08
2023-10-16T03:41:43.975Z,0.85
2023-10-16T03:44:15.880Z,0.65
2023-10-16T03:46:45.978Z,1.48
2023-10-16T03:49:16.506Z,1.52
2023-10-16T03:51:49.938Z,0.88
2023-10-16T03:54:25.525Z,0.90
2023-10-16T03:56:54.801Z,0.98
2023-10-16T03:59:23.032Z,0.95
2023-10-16T04:01:51.602Z,0.70
2023-10-16T04:04:19.880Z,1.00
2023-10-16T04:06:50.340Z,1.25
2023-10-16T04:09:19.286Z,1.42
2023-10-16T04:11:55.918Z,0.80
2023-10-16T04:14:46.561Z,0.80
2023-10-16T04:17:15.061Z,0.57
2023-10-16T04:20:01.207Z,1.00
2023-10-16T04:22:44.557Z,1.00
2023-10-16T04:25:19.821Z,0.85
2023-10-16T04:27:56.338Z,1.08
2023-10-16T04:30:24.422Z,1.40
2023-10-16T04:33:15.500Z,0.88
2023-10-16T04:35:43.620Z,0.80
2023-10-16T04:38:33.034Z,1.38
2023-10-16T04:41:19.946Z,1.73
2023-10-16T04:44:14.812Z,1.48
2023-10-16T04:47:01.841Z,2.10
2023-10-16T04:49:30.543Z,1.70
2023-10-16T04:52:09.052Z,2.10
2023-10-16T04:54:56.209Z,1.02
2023-10-16T04:57:27.406Z,1.45
2023-10-16T05:00:13.745Z,1.02
2023-10-16T05:02:45.591Z,1.17
2023-10-16T05:05:32.590Z,1.15
2023-10-16T05:08:19.326Z,1.40
2023-10-16T05:11:13.456Z,1.27
2023-10-16T05:13:44.590Z,0.85
2023-10-16T05:16:33.333Z,0.80
2023-10-16T05:19:05.347Z,0.75
2023-10-16T05:21:44.264Z,0.63
2023-10-16T05:24:30.759Z,0.88
2023-10-16T05:27:18.118Z,0.75
2023-10-16T05:30:05.109Z,0.90
2023-10-16T05:32:51.978Z,0.57
2023-10-16T05:35:38.799Z,0.70
2023-10-16T05:38:26.033Z,0.80
2023-10-16T05:41:29.035Z,1.17
2023-10-16T05:44:16.850Z,0.60
2023-10-16T05:47:04.677Z,0.90
2023-10-16T05:49:51.422Z,0.70
2023-10-16T05:52:38.207Z,0.50
2023-10-16T05:55:25.476Z,1.10
2023-10-16T05:58:19.810Z,0.50
2023-10-16T06:01:06.861Z,0.82
2023-10-16T06:03:53.657Z,0.95
2023-10-16T06:06:40.890Z,0.80
2023-10-16T06:09:27.866Z,0.63
2023-10-16T06:12:15.320Z,0.80
2023-10-16T06:14:46.736Z,1.00
2023-10-16T06:17:17.490Z,1.40
2023-10-16T06:19:45.689Z,0.80
2023-10-16T06:22:14.459Z,1.33
2023-10-16T06:25:00.752Z,0.50
2023-10-16T06:27:35.353Z,0.60
2023-10-16T06:30:07.307Z,0.77
2023-10-16T06:32:38.802Z,0.90
2023-10-16T06:35:09.474Z,0.93
2023-10-16T06:37:39.835Z,1.17
2023-10-16T06:40:17.721Z,0.90
2023-10-16T06:42:49.378Z,0.65
2023-10-16T06:45:24.183Z,0.50
2023-10-16T06:47:56.496Z,1.40
2023-10-16T06:50:24.635Z,0.95
2023-10-16T06:52:55.566Z,0.73
2023-10-16T06:55:23.898Z,0.88
2023-10-16T06:57:52.563Z,1.13
2023-10-16T07:00:33.922Z,1.15
2023-10-16T07:03:11.156Z,0.88
2023-10-16T07:05:46.166Z,1.17
2023-10-16T07:08:20.030Z,0.98
2023-10-16T07:13:29.294Z,1.02
2023-10-16T07:16:03.821Z,1.35
2023-10-16T07:18:36.020Z,0.90
2023-10-16T07:21:08.817Z,2.90
2023-10-16T07:23:38.485Z,1.42
2023-10-16T07:26:10.712Z,1.45
2023-10-16T07:28:41.360Z,0.90
2023-10-16T07:31:12.393Z,1.20
2023-10-16T07:33:44.074Z,1.33
2023-10-16T07:36:14.844Z,1.23
2023-10-16T07:38:43.429Z,1.23
2023-10-16T07:41:14.215Z,2.65
2023-10-16T07:43:47.765Z,1.00
2023-10-16T07:46:31.899Z,1.20
2023-10-16T07:49:11.503Z,0.82
2023-10-16T07:51:47.270Z,1.77
2023-10-16T07:54:16.114Z,1.00
2023-10-16T07:56:46.035Z,1.00
2023-10-16T07:59:20.092Z,0.82
2023-10-16T08:01:59.315Z,0.82
2023-10-16T08:04:28.610Z,0.73
2023-10-16T08:07:06.149Z,1.58
2023-10-16T08:09:36.493Z,0.80
2023-10-16T08:12:15.066Z,1.00
2023-10-16T08:14:43.530Z,0.60
2023-10-16T08:17:19.166Z,0.52
2023-10-16T08:19:50.894Z,0.60
2023-10-16T08:22:19.118Z,1.52
2023-10-16T08:25:06.229Z,0.55
2023-10-16T08:27:40.451Z,0.75
2023-10-16T08:30:19.912Z,0.90
2023-10-16T08:32:49.330Z,0.50
2023-10-16T08:35:24.128Z,0.80
2023-10-16T08:38:01.208Z,0.68
2023-10-16T08:40:36.983Z,1.05
2023-10-16T08:43:05.977Z,0.95
2023-10-16T08:45:35.044Z,1.08
2023-10-16T08:48:06.989Z,0.60
2023-10-16T08:50:43.198Z,0.57
2023-10-16T08:53:32.428Z,0.50
2023-10-16T08:56:10.092Z,0.65
2023-10-16T08:58:46.012Z,0.88
2023-10-16T09:01:18.676Z,1.40
2023-10-16T09:03:58.433Z,0.77
2023-10-16T09:06:27.156Z,0.93
2023-10-16T09:08:56.405Z,1.05
2023-10-16T09:11:28.557Z,1.42
2023-10-16T09:13:56.933Z,0.98
2023-10-16T09:16:26.678Z,0.65
2023-10-16T09:18:55.746Z,0.60
2023-10-16T09:21:29.617Z,0.90
2023-10-16T09:26:39.501Z,0.55
2023-10-16T09:29:16.669Z,1.00
2023-10-16T09:31:46.481Z,0.60
2023-10-16T09:34:19.825Z,0.70
2023-10-16T09:37:12.338Z,0.77
2023-10-16T09:39:50.837Z,0.47
2023-10-16T09:42:25.942Z,0.52
2023-10-16T09:44:58.211Z,0.90
2023-10-16T09:47:27.962Z,0.60
2023-10-16T09:50:01.070Z,0.70
2023-10-16T09:52:32.864Z,0.77
2023-10-16T09:55:01.973Z,0.60
2023-10-16T09:57:32.721Z,0.50
2023-10-16T10:00:22.665Z,0.60
2023-10-16T10:02:54.690Z,1.13
2023-10-16T10:05:24.048Z,0.88
2023-10-16T10:08:00.197Z,0.70
2023-10-16T10:10:34.639Z,0.80
2023-10-16T10:13:10.572Z,1.13
2023-10-16T10:15:46.318Z,0.75
2023-10-16T10:18:43.927Z,0.73
2023-10-16T10:21:19.946Z,0.60
2023-10-16T10:23:49.721Z,0.75
2023-10-16T10:26:21.957Z,0.70
2023-10-16T10:29:10.982Z,1.02
2023-10-16T10:31:43.860Z,0.73
2023-10-16T10:34:24.808Z,0.80
2023-10-16T10:36:54.839Z,1.08
2023-10-16T10:39:23.614Z,1.02
2023-10-16T10:41:55.823Z,0.60
2023-10-16T10:44:39.230Z,0.70
2023-10-16T10:47:32.564Z,0.80
2023-10-16T10:50:13.371Z,0.80
2023-10-16T10:52:43.026Z,0.90
2023-10-16T10:55:24.371Z,1.00
2023-10-16T10:57:59.301Z,0.90
2023-10-16T11:00:28.603Z,1.00
2023-10-16T11:03:02.804Z,1.25
2023-10-16T11:05:35.247Z,0.70
2023-10-16T11:08:11.708Z,2.47
2023-10-16T11:10:45.776Z,0.98
2023-10-16T11:13:16.409Z,0.80
2023-10-16T11:15:56.004Z,1.38
2023-10-16T11:18:28.027Z,0.90
2023-10-16T11:21:06.539Z,1.20
2023-10-16T11:23:41.762Z,1.08
2023-10-16T11:26:15.342Z,0.82
2023-10-16T11:28:50.478Z,1.00
2023-10-16T11:31:20.684Z,1.15
2023-10-16T11:34:08.225Z,0.90
2023-10-16T11:36:42.031Z,1.20
2023-10-16T11:39:21.021Z,1.00
2023-10-16T11:41:50.638Z,1.60
2023-10-16T11:44:20.781Z,1.20
2023-10-16T11:46:54.127Z,0.90
2023-10-16T11:49:24.480Z,1.10
2023-10-16T11:51:54.787Z,0.90
2023-10-16T11:54:25.163Z,0.93
2023-10-16T11:56:59.694Z,1.08
2023-10-16T11:59:30.052Z,1.88
2023-10-16T12:02:04.524Z,0.85
2023-10-16T12:04:34.141Z,0.95
2023-10-16T12:07:03.076Z,1.58
2023-10-16T12:09:38.894Z,0.82
2023-10-16T12:12:09.124Z,1.30
2023-10-16T12:14:40.312Z,1.00
2023-10-16T12:17:13.577Z,1.00
2023-10-16T12:19:41.908Z,1.00
2023-10-16T12:22:10.722Z,1.00
2023-10-16T12:24:40.778Z,0.85
2023-10-16T12:27:09.785Z,1.17
2023-10-16T12:29:38.049Z,1.02
2023-10-16T12:32:06.532Z,0.93
2023-10-16T12:34:35.434Z,0.98
2023-10-16T12:37:08.572Z,0.95
2023-10-16T12:39:49.576Z,1.40
2023-10-16T12:42:20.272Z,1.05
2023-10-16T12:44:48.550Z,1.10
2023-10-16T12:47:28.198Z,1.27
2023-10-16T12:50:06.932Z,1.00
2023-10-16T12:52:35.382Z,0.80
2023-10-16T12:55:03.524Z,1.02
2023-10-16T12:57:33.842Z,1.77
2023-10-16T13:00:01.980Z,1.48
2023-10-16T13:02:30.603Z,1.15
2023-10-16T13:05:03.053Z,1.08
2023-10-16T13:07:42.271Z,1.02
2023-10-16T13:10:18.241Z,0.95
2023-10-16T13:12:47.463Z,1.13
2023-10-16T13:15:17.602Z,1.30
2023-10-16T13:17:46.230Z,1.42
2023-10-16T13:20:19.396Z,1.30
2023-10-16T13:25:23.114Z,1.17
2023-10-16T13:27:52.991Z,0.82
2023-10-16T13:30:24.047Z,1.20
2023-10-16T13:32:52.988Z,1.30
2023-10-16T13:35:22.477Z,1.98
2023-10-16T13:37:52.127Z,1.20
2023-10-16T13:40:26.154Z,1.00
2023-10-16T13:42:56.779Z,1.00
2023-10-16T13:45:27.163Z,1.05
2023-10-16T13:47:56.671Z,1.00
2023-10-16T13:50:29.652Z,1.10
2023-10-16T13:52:58.278Z,2.38
2023-10-16T13:55:31.733Z,1.95
2023-10-16T13:58:00.210Z,1.50
2023-10-16T14:00:31.335Z,0.90
2023-10-16T14:03:11.125Z,0.90
2023-10-16T14:05:52.201Z,1.05
2023-10-16T14:08:32.405Z,1.13
2023-10-16T14:11:01.965Z,1.15
2023-10-16T14:13:33.861Z,1.20
2023-10-16T14:16:13.040Z,1.00
2023-10-16T14:18:45.736Z,1.33
2023-10-16T14:21:15.604Z,1.17
2023-10-16T14:24:03.405Z,1.35
2023-10-16T14:26:31.809Z,1.02
2023-10-16T14:29:05.517Z,1.27
2023-10-16T14:31:35.303Z,1.20
2023-10-16T14:34:07.343Z,1.35
2023-10-16T14:36:35.510Z,1.27
2023-10-16T14:39:06.435Z,1.10
2023-10-16T14:41:34.508Z,0.98
2023-10-16T14:44:16.938Z,1.20
2023-10-16T14:46:52.389Z,1.27
2023-10-16T14:49:21.488Z,0.93
2023-10-16T14:51:52.268Z,1.45
2023-10-16T14:54:23.473Z,1.05
2023-10-16T14:56:53.997Z,2.28
2023-10-16T14:59:35.574Z,1.30
2023-10-16T15:02:04.641Z,1.20
2023-10-16T15:04:34.326Z,0.68
2023-10-16T15:07:06.468Z,1.52
2023-10-16T15:09:36.518Z,1.45
2023-10-16T15:12:08.612Z,1.13
2023-10-16T15:14:37.494Z,1.00
2023-10-16T15:17:06.917Z,1.08
2023-10-16T15:19:40.321Z,0.90
2023-10-16T15:22:08.579Z,1.10
2023-10-16T15:24:38.800Z,2.95
2023-10-16T15:27:07.096Z,1.40
2023-10-16T15:29:36.465Z,1.17
2023-10-16T15:32:09.509Z,1.30
2023-10-16T15:34:37.951Z,0.90
2023-10-16T15:37:10.834Z,1.40
2023-10-16T15:39:40.726Z,1.05
2023-10-16T15:42:09.759Z,1.30
2023-10-16T15:44:38.492Z,1.52
2023-10-16T15:47:08.704Z,1.40
2023-10-16T15:49:37.895Z,1.23
2023-10-16T15:52:07.361Z,2.58
2023-10-16T15:54:35.789Z,1.15
2023-10-16T15:57:03.918Z,0.80
2023-10-16T15:59:32.855Z,1.48
2023-10-16T16:02:00.879Z,0.85
2023-10-16T16:04:30.074Z,1.00
2023-10-16T16:07:03.561Z,0.90
2023-10-16T16:12:00.102Z,1.55
2023-10-16T16:14:29.021Z,1.08
2023-10-16T16:16:57.404Z,1.00
2023-10-16T16:19:26.356Z,1.33
2023-10-16T16:21:54.812Z,1.10
2023-10-16T16:24:23.230Z,2.67
2023-10-16T16:26:51.413Z,1.75
2023-10-16T16:29:20.060Z,1.63
2023-10-16T16:31:48.460Z,1.33
2023-10-16T16:34:17.023Z,1.17
2023-10-16T16:36:45.431Z,1.15
2023-10-16T16:39:19.798Z,0.98
2023-10-16T16:41:48.402Z,1.20
2023-10-16T16:44:17.041Z,1.33
2023-10-16T16:46:45.827Z,1.33
2023-10-16T16:49:14.646Z,1.17
2023-10-16T16:51:44.714Z,1.60
2023-10-16T16:54:14.154Z,0.90
2023-10-16T16:56:43.044Z,1.55
2023-10-16T16:59:14.445Z,1.30
2023-10-16T17:01:48.528Z,1.20
2023-10-16T17:04:18.207Z,1.52
2023-10-16T17:06:46.438Z,1.30
2023-10-16T17:09:19.474Z,1.08
2023-10-16T17:11:49.616Z,1.60
2023-10-16T17:14:20.205Z,1.58
2023-10-16T17:16:50.881Z,1.90
2023-10-16T17:19:20.110Z,2.20
2023-10-16T17:21:49.207Z,1.58
2023-10-16T17:24:17.793Z,0.95
2023-10-16T17:26:46.851Z,1.35
2023-10-16T17:29:16.063Z,1.52
2023-10-16T17:31:44.234Z,2.03
2023-10-16T17:34:15.291Z,1.50
2023-10-16T17:36:44.692Z,1.90
2023-10-16T17:39:15.112Z,2.67
2023-10-16T17:41:43.413Z,1.98
2023-10-16T17:44:11.757Z,2.10
2023-10-16T17:46:42.268Z,2.08
2023-10-16T17:49:11.066Z,1.95
2023-10-16T17:51:39.513Z,1.67
2023-10-16T17:54:10.501Z,1.67
2023-10-16T17:56:41.381Z,1.75
2023-10-16T17:59:13.005Z,1.67
2023-10-16T18:01:45.340Z,2.05
2023-10-16T18:04:14.602Z,1.90
2023-10-16T18:06:43.568Z,2.00
2023-10-16T18:09:12.430Z,1.77
2023-10-16T18:11:40.549Z,1.50
2023-10-16T18:14:09.115Z,1.55
2023-10-16T18:16:40.572Z,1.77
2023-10-16T18:19:12.344Z,2.05
2023-10-16T18:21:41.856Z,1.73
2023-10-16T18:40:02.240Z,2.00
2023-10-16T18:42:31.154Z,1.30
2023-10-16T18:44:59.369Z,2.08
2023-10-16T18:47:28.646Z,1.85
2023-10-16T18:49:56.814Z,1.55
2023-10-16T18:52:26.587Z,2.00
2023-10-16T18:54:54.904Z,2.40
2023-10-16T18:57:23.954Z,2.55
2023-10-16T18:59:52.232Z,1.73
2023-10-16T19:02:20.730Z,1.70
2023-10-16T19:04:48.837Z,1.48
2023-10-16T19:07:17.463Z,1.40
2023-10-16T19:09:45.521Z,2.05
2023-10-16T19:12:15.663Z,1.48
2023-10-16T19:14:43.942Z,1.75
2023-10-16T19:17:13.030Z,3.85
2023-10-16T19:19:41.227Z,1.83
2023-10-16T19:22:10.071Z,1.75
2023-10-16T19:24:38.194Z,3.03
2023-10-16T19:27:06.722Z,4.10
2023-10-16T19:29:35.053Z,2.05
2023-10-16T19:32:03.797Z,1.90
2023-10-16T19:34:32.360Z,1.90
2023-10-16T19:37:00.776Z,2.28
2023-10-16T19:39:29.044Z,2.00
2023-10-16T19:41:58.077Z,1.55
2023-10-16T19:44:26.993Z,2.20
2023-10-16T19:46:55.823Z,1.42
2023-10-16T19:49:25.036Z,1.58
2023-10-16T19:51:54.368Z,1.58
2023-10-16T19:54:25.049Z,1.45
2023-10-16T19:56:53.868Z,1.90
2023-10-16T19:59:21.897Z,2.13
2023-10-16T20:01:50.840Z,1.83
2023-10-16T20:04:20.761Z,1.80
2023-10-16T20:06:50.913Z,1.33
2023-10-16T20:09:31.904Z,1.67
2023-10-16T20:12:13.025Z,2.17
2023-10-16T20:14:48.654Z,1.63
2023-10-16T20:17:17.296Z,3.03
2023-10-16T20:19:47.075Z,2.08
2023-10-16T20:22:19.347Z,2.22
2023-10-16T20:24:48.890Z,1.60
2023-10-16T20:27:17.342Z,1.40
2023-10-16T20:29:45.405Z,1.67
2023-10-16T20:32:16.674Z,2.10
2023-10-16T20:34:48.086Z,1.65
2023-10-16T20:37:18.945Z,2.13
2023-10-16T20:39:51.501Z,1.73
2023-10-16T20:42:20.322Z,1.80
2023-10-16T20:44:48.616Z,2.13
2023-10-16T20:47:17.372Z,1.83
2023-10-16T20:49:45.799Z,1.77
2023-10-16T20:52:14.314Z,1.67
2023-10-16T20:54:42.384Z,1.88
2023-10-16T20:57:11.413Z,1.95
2023-10-16T20:59:39.559Z,2.00
2023-10-16T21:02:08.298Z,2.20
2023-10-16T21:04:38.432Z,2.22
2023-10-16T21:07:07.095Z,3.08
2023-10-16T21:09:35.406Z,2.03
2023-10-16T21:12:04.033Z,2.47
2023-10-16T21:14:32.274Z,2.25
2023-10-16T21:17:00.834Z,3.00
2023-10-16T21:19:30.031Z,2.30
2023-10-16T21:22:00.270Z,2.33
2023-10-16T21:24:28.716Z,2.40
2023-10-16T21:26:57.914Z,2.50
2023-10-16T21:29:25.968Z,2.40
2023-10-16T21:31:54.538Z,2.55
2023-10-16T21:34:22.679Z,2.22
2023-10-16T21:36:52.414Z,2.80
2023-10-16T21:39:21.022Z,2.20
2023-10-16T21:41:49.653Z,2.03
2023-10-16T21:44:19.580Z,2.13
2023-10-16T21:46:48.238Z,2.60
2023-10-16T21:49:17.118Z,2.67
2023-10-16T21:51:45.710Z,2.28
2023-10-16T21:54:13.864Z,2.63
2023-10-16T21:56:43.200Z,1.98
2023-10-16T21:59:11.532Z,2.42
2023-10-16T22:01:40.419Z,2.65
2023-10-16T22:04:09.757Z,2.95
2023-10-16T22:06:39.367Z,3.38
2023-10-16T22:09:11.403Z,2.40
2023-10-16T22:11:44.309Z,2.28
2023-10-16T22:14:20.205Z,2.13
2023-10-16T22:16:49.740Z,2.60
2023-10-16T22:19:20.911Z,2.53
2023-10-16T22:21:49.466Z,3.65
2023-10-16T22:24:17.862Z,3.20
2023-10-16T22:26:46.999Z,2.40
2023-10-16T22:29:15.151Z,3.97
2023-10-16T22:31:43.641Z,2.53
2023-10-16T22:34:11.703Z,2.30
2023-10-16T22:36:40.208Z,1.95
2023-10-16T22:39:11.525Z,2.53
2023-10-16T22:41:40.330Z,2.20
2023-10-16T22:44:08.845Z,1.80
2023-10-16T22:46:38.505Z,1.40
2023-10-16T22:49:09.133Z,1.70
2023-10-16T22:51:38.674Z,1.60
2023-10-16T22:54:08.425Z,1.52
2023-10-16T22:56:38.625Z,2.58
2023-10-16T22:59:09.075Z,1.92
2023-10-16T23:01:38.201Z,2.33
2023-10-16T23:04:06.858Z,1.50
2023-10-16T23:06:38.778Z,1.85
2023-10-16T23:09:30.347Z,1.83
2023-10-16T23:12:09.053Z,1.35
2023-10-16T23:14:41.138Z,1.80
2023-10-16T23:17:19.868Z,1.60
2023-10-16T23:19:49.083Z,1.70
2023-10-16T23:22:18.926Z,1.77
2023-10-16T23:24:47.205Z,1.77
2023-10-16T23:27:17.598Z,1.52
2023-10-16T23:29:46.597Z,1.70
2023-10-16T23:32:17.380Z,1.80
2023-10-16T23:34:55.747Z,2.05
2023-10-16T23:37:33.515Z,2.00
2023-10-16T23:40:11.956Z,1.40
2023-10-16T23:42:41.088Z,2.10
2023-10-16T23:45:09.733Z,1.67
2023-10-16T23:47:38.599Z,1.70
2023-10-16T23:50:09.056Z,1.60
2023-10-16T23:52:40.542Z,1.25
2023-10-16T23:55:15.348Z,1.67
2023-10-16T23:57:50.106Z,1.30
